sensor_id;sensor_type;location;lat;lon;timestamp;pressure;altitude;pressure_sealevel;temperature;humidity
27805;BME280;15183;51.350;11.102;2023-06-10T00:00:43;100016.34;;;22.71;47.94
27805;BME280;15183;51.350;11.102;2023-06-10T00:03:10;100010.56;;;22.64;48.52
27805;BME280;15183;51.350;11.102;2023-06-10T00:05:37;100005.16;;;22.64;48.59
27805;BME280;15183;51.350;11.102;2023-06-10T00:08:05;99999.56;;;22.60;48.57
27805;BME280;15183;51.350;11.102;2023-06-10T00:10:35;100014.97;;;22.60;48.73
27805;BME280;15183;51.350;11.102;2023-06-10T00:13:04;99977.66;;;22.34;48.43
27805;BME280;15183;51.350;11.102;2023-06-10T00:15:31;100006.34;;;22.44;48.76
27805;BME280;15183;51.350;11.102;2023-06-10T00:17:57;100007.75;;;22.41;48.97
27805;BME280;15183;51.350;11.102;2023-06-10T00:20:24;99997.94;;;22.31;48.63
27805;BME280;15183;51.350;11.102;2023-06-10T00:22:51;100005.75;;;22.33;48.91
27805;BME280;15183;51.350;11.102;2023-06-10T00:25:18;100001.34;;;22.23;48.69
27805;BME280;15183;51.350;11.102;2023-06-10T00:27:45;100006.56;;;22.19;49.49
27805;BME280;15183;51.350;11.102;2023-06-10T00:30:12;99996.16;;;22.12;48.99
27805;BME280;15183;51.350;11.102;2023-06-10T00:32:38;100006.66;;;22.14;49.60
27805;BME280;15183;51.350;11.102;2023-06-10T00:35:06;100007.84;;;22.08;49.64
27805;BME280;15183;51.350;11.102;2023-06-10T00:37:33;100016.44;;;22.10;49.12
27805;BME280;15183;51.350;11.102;2023-06-10T00:40:05;100023.25;;;22.07;49.79
27805;BME280;15183;51.350;11.102;2023-06-10T00:42:32;100004.53;;;21.97;49.08
27805;BME280;15183;51.350;11.102;2023-06-10T00:44:58;99988.03;;;21.85;49.42
27805;BME280;15183;51.350;11.102;2023-06-10T00:47:25;100013.72;;;21.96;49.51
27805;BME280;15183;51.350;11.102;2023-06-10T00:49:52;100010.53;;;21.94;49.60
27805;BME280;15183;51.350;11.102;2023-06-10T00:52:19;100006.31;;;21.88;49.87
27805;BME280;15183;51.350;11.102;2023-06-10T00:54:48;100000.53;;;21.80;49.86
27805;BME280;15183;51.350;11.102;2023-06-10T00:57:14;100003.81;;;21.77;49.59
27805;BME280;15183;51.350;11.102;2023-06-10T00:59:46;100016.69;;;21.80;49.62
27805;BME280;15183;51.350;11.102;2023-06-10T01:02:13;100016.47;;;21.77;49.94
27805;BME280;15183;51.350;11.102;2023-06-10T01:04:40;100010.31;;;21.76;49.93
27805;BME280;15183;51.350;11.102;2023-06-10T01:10:38;100022.88;;;21.67;49.75
27805;BME280;15183;51.350;11.102;2023-06-10T01:13:10;100017.22;;;21.63;50.16
27805;BME280;15183;51.350;11.102;2023-06-10T01:15:38;100024.03;;;21.61;49.90
27805;BME280;15183;51.350;11.102;2023-06-10T01:18:09;100018.19;;;21.53;50.08
27805;BME280;15183;51.350;11.102;2023-06-10T01:20:37;100009.59;;;21.51;49.92
27805;BME280;15183;51.350;11.102;2023-06-10T01:23:07;100010.50;;;21.47;50.28
27805;BME280;15183;51.350;11.102;2023-06-10T01:25:41;100020.56;;;21.41;50.57
27805;BME280;15183;51.350;11.102;2023-06-10T01:28:14;100006.75;;;21.29;50.73
27805;BME280;15183;51.350;11.102;2023-06-10T01:31:15;100022.69;;;21.25;50.48
27805;BME280;15183;51.350;11.102;2023-06-10T01:33:46;100008.63;;;21.09;50.46
27805;BME280;15183;51.350;11.102;2023-06-10T01:36:16;100011.25;;;21.14;50.83
27805;BME280;15183;51.350;11.102;2023-06-10T01:38:45;100020.34;;;21.18;50.62
27805;BME280;15183;51.350;11.102;2023-06-10T01:41:14;100009.97;;;21.11;50.93
27805;BME280;15183;51.350;11.102;2023-06-10T01:43:44;100005.75;;;21.05;50.58
27805;BME280;15183;51.350;11.102;2023-06-10T01:46:11;100021.69;;;21.02;50.70
27805;BME280;15183;51.350;11.102;2023-06-10T01:48:38;99995.00;;;20.81;50.87
27805;BME280;15183;51.350;11.102;2023-06-10T01:51:05;100000.69;;;20.79;51.18
27805;BME280;15183;51.350;11.102;2023-06-10T01:53:31;100018.19;;;20.77;51.82
27805;BME280;15183;51.350;11.102;2023-06-10T01:55:58;100013.19;;;20.70;51.56
27805;BME280;15183;51.350;11.102;2023-06-10T01:58:24;100013.97;;;20.71;51.74
27805;BME280;15183;51.350;11.102;2023-06-10T02:00:51;100008.16;;;20.63;51.38
27805;BME280;15183;51.350;11.102;2023-06-10T02:03:17;100014.03;;;20.65;51.68
27805;BME280;15183;51.350;11.102;2023-06-10T02:05:44;99990.59;;;20.47;51.89
27805;BME280;15183;51.350;11.102;2023-06-10T02:08:11;100014.13;;;20.60;51.91
27805;BME280;15183;51.350;11.102;2023-06-10T02:10:37;100007.78;;;20.51;51.47
27805;BME280;15183;51.350;11.102;2023-06-10T02:13:04;100017.91;;;20.59;51.38
27805;BME280;15183;51.350;11.102;2023-06-10T02:15:31;100022.19;;;20.60;51.65
27805;BME280;15183;51.350;11.102;2023-06-10T02:17:57;100019.06;;;20.53;51.93
27805;BME280;15183;51.350;11.102;2023-06-10T02:20:24;100009.06;;;20.53;51.63
27805;BME280;15183;51.350;11.102;2023-06-10T02:22:50;100020.06;;;20.57;51.67
27805;BME280;15183;51.350;11.102;2023-06-10T02:25:16;100018.47;;;20.56;51.99
27805;BME280;15183;51.350;11.102;2023-06-10T02:27:43;100021.22;;;20.51;51.38
27805;BME280;15183;51.350;11.102;2023-06-10T02:30:10;100020.72;;;20.49;51.99
27805;BME280;15183;51.350;11.102;2023-06-10T02:32:37;100009.91;;;20.30;51.93
27805;BME280;15183;51.350;11.102;2023-06-10T02:35:03;100018.63;;;20.16;52.38
27805;BME280;15183;51.350;11.102;2023-06-10T02:37:30;100014.16;;;20.06;52.43
27805;BME280;15183;51.350;11.102;2023-06-10T02:39:56;100038.63;;;20.10;52.27
27805;BME280;15183;51.350;11.102;2023-06-10T02:42:23;100032.06;;;19.92;52.26
27805;BME280;15183;51.350;11.102;2023-06-10T02:44:49;100018.44;;;19.78;52.69
27805;BME280;15183;51.350;11.102;2023-06-10T02:47:15;100036.94;;;19.85;53.02
27805;BME280;15183;51.350;11.102;2023-06-10T02:49:42;100034.78;;;19.87;52.30
27805;BME280;15183;51.350;11.102;2023-06-10T02:52:09;100029.41;;;19.87;53.09
27805;BME280;15183;51.350;11.102;2023-06-10T02:54:37;100012.44;;;19.86;52.71
27805;BME280;15183;51.350;11.102;2023-06-10T02:57:04;100045.94;;;20.04;52.63
27805;BME280;15183;51.350;11.102;2023-06-10T02:59:31;100041.63;;;20.03;52.21
27805;BME280;15183;51.350;11.102;2023-06-10T03:01:58;100038.09;;;20.08;52.06
27805;BME280;15183;51.350;11.102;2023-06-10T03:04:25;100036.44;;;20.12;52.20
27805;BME280;15183;51.350;11.102;2023-06-10T03:06:55;100034.31;;;20.09;52.35
27805;BME280;15183;51.350;11.102;2023-06-10T03:09:21;100029.75;;;20.09;52.55
27805;BME280;15183;51.350;11.102;2023-06-10T03:11:48;100030.34;;;20.01;52.38
27805;BME280;15183;51.350;11.102;2023-06-10T03:14:14;100046.13;;;20.13;51.98
27805;BME280;15183;51.350;11.102;2023-06-10T03:16:40;100044.81;;;20.10;51.99
27805;BME280;15183;51.350;11.102;2023-06-10T03:19:08;100060.28;;;20.24;52.08
27805;BME280;15183;51.350;11.102;2023-06-10T03:21:35;100060.22;;;20.29;52.20
27805;BME280;15183;51.350;11.102;2023-06-10T03:24:04;100056.94;;;20.32;51.91
27805;BME280;15183;51.350;11.102;2023-06-10T03:26:30;100046.75;;;20.29;51.59
27805;BME280;15183;51.350;11.102;2023-06-10T03:28:57;100052.59;;;20.36;51.60
27805;BME280;15183;51.350;11.102;2023-06-10T03:31:23;100061.44;;;20.42;51.93
27805;BME280;15183;51.350;11.102;2023-06-10T03:33:50;100054.16;;;20.43;51.73
27805;BME280;15183;51.350;11.102;2023-06-10T03:36:17;100055.94;;;20.52;52.07
27805;BME280;15183;51.350;11.102;2023-06-10T03:38:43;100065.47;;;20.64;51.97
27805;BME280;15183;51.350;11.102;2023-06-10T03:41:10;100055.47;;;20.70;51.97
27805;BME280;15183;51.350;11.102;2023-06-10T03:43:37;100060.47;;;20.81;52.25
27805;BME280;15183;51.350;11.102;2023-06-10T03:46:05;100068.63;;;20.95;52.41
27805;BME280;15183;51.350;11.102;2023-06-10T03:48:31;100073.31;;;21.09;52.89
27805;BME280;15183;51.350;11.102;2023-06-10T03:50:57;100080.03;;;21.31;52.50
27805;BME280;15183;51.350;11.102;2023-06-10T03:53:24;100065.22;;;21.47;52.01
27805;BME280;15183;51.350;11.102;2023-06-10T03:55:51;100063.25;;;21.72;52.14
27805;BME280;15183;51.350;11.102;2023-06-10T03:58:17;100053.69;;;21.94;51.43
27805;BME280;15183;51.350;11.102;2023-06-10T04:00:44;100069.22;;;22.30;51.96
27805;BME280;15183;51.350;11.102;2023-06-10T04:03:11;100074.28;;;22.51;51.79
27805;BME280;15183;51.350;11.102;2023-06-10T04:05:41;100082.66;;;22.77;51.54
27805;BME280;15183;51.350;11.102;2023-06-10T04:08:08;100074.44;;;22.96;50.95
27805;BME280;15183;51.350;11.102;2023-06-10T04:10:35;100089.13;;;23.18;51.18
27805;BME280;15183;51.350;11.102;2023-06-10T04:13:02;100084.38;;;23.24;50.06
27805;BME280;15183;51.350;11.102;2023-06-10T04:15:30;100080.06;;;23.37;50.44
27805;BME280;15183;51.350;11.102;2023-06-10T04:17:58;100082.22;;;23.49;50.25
27805;BME280;15183;51.350;11.102;2023-06-10T04:20:26;100091.41;;;23.62;50.40
27805;BME280;15183;51.350;11.102;2023-06-10T04:22:52;100087.94;;;23.70;50.73
27805;BME280;15183;51.350;11.102;2023-06-10T04:25:19;100093.66;;;23.91;50.21
27805;BME280;15183;51.350;11.102;2023-06-10T04:27:45;100091.88;;;24.09;50.11
27805;BME280;15183;51.350;11.102;2023-06-10T04:30:13;100099.78;;;24.28;49.80
27805;BME280;15183;51.350;11.102;2023-06-10T04:32:39;100080.19;;;24.32;49.68
27805;BME280;15183;51.350;11.102;2023-06-10T04:35:06;100092.72;;;24.59;49.95
27805;BME280;15183;51.350;11.102;2023-06-10T04:37:33;100086.25;;;24.78;50.17
27805;BME280;15183;51.350;11.102;2023-06-10T04:39:59;100074.00;;;24.89;49.28
27805;BME280;15183;51.350;11.102;2023-06-10T04:42:26;100092.69;;;25.17;49.38
27805;BME280;15183;51.350;11.102;2023-06-10T04:44:52;100087.59;;;25.33;48.84
27805;BME280;15183;51.350;11.102;2023-06-10T04:47:19;100083.31;;;25.50;49.20
27805;BME280;15183;51.350;11.102;2023-06-10T04:49:45;100075.00;;;25.64;48.17
27805;BME280;15183;51.350;11.102;2023-06-10T04:52:11;100081.97;;;25.91;47.41
27805;BME280;15183;51.350;11.102;2023-06-10T04:54:40;100091.66;;;26.19;47.26
27805;BME280;15183;51.350;11.102;2023-06-10T04:57:07;100082.81;;;26.30;46.34
27805;BME280;15183;51.350;11.102;2023-06-10T04:59:33;100079.56;;;26.46;46.28
27805;BME280;15183;51.350;11.102;2023-06-10T05:02:04;100088.75;;;26.63;45.63
27805;BME280;15183;51.350;11.102;2023-06-10T05:04:31;100095.25;;;26.70;45.98
27805;BME280;15183;51.350;11.102;2023-06-10T05:06:57;100115.50;;;26.82;45.58
27805;BME280;15183;51.350;11.102;2023-06-10T05:09:24;100110.56;;;26.84;45.05
27805;BME280;15183;51.350;11.102;2023-06-10T05:11:50;100108.94;;;26.83;45.35
27805;BME280;15183;51.350;11.102;2023-06-10T05:14:16;100123.34;;;26.83;44.75
27805;BME280;15183;51.350;11.102;2023-06-10T05:16:45;100114.25;;;26.79;45.12
27805;BME280;15183;51.350;11.102;2023-06-10T05:19:11;100118.53;;;26.89;45.25
27805;BME280;15183;51.350;11.102;2023-06-10T05:21:37;100128.09;;;26.95;44.75
27805;BME280;15183;51.350;11.102;2023-06-10T05:24:04;100120.22;;;27.02;44.46
27805;BME280;15183;51.350;11.102;2023-06-10T05:26:31;100122.28;;;27.06;44.61
27805;BME280;15183;51.350;11.102;2023-06-10T05:29:04;100117.94;;;27.05;44.05
27805;BME280;15183;51.350;11.102;2023-06-10T05:31:31;100114.31;;;27.00;44.01
27805;BME280;15183;51.350;11.102;2023-06-10T05:33:58;100118.69;;;27.14;44.32
27805;BME280;15183;51.350;11.102;2023-06-10T05:36:24;100130.59;;;27.30;44.33
27805;BME280;15183;51.350;11.102;2023-06-10T05:38:53;100128.66;;;27.52;43.97
27805;BME280;15183;51.350;11.102;2023-06-10T05:41:20;100128.84;;;27.68;44.46
27805;BME280;15183;51.350;11.102;2023-06-10T05:43:48;100126.59;;;27.83;44.00
27805;BME280;15183;51.350;11.102;2023-06-10T05:46:14;100139.84;;;28.06;43.98
27805;BME280;15183;51.350;11.102;2023-06-10T05:48:41;100140.94;;;28.26;43.88
27805;BME280;15183;51.350;11.102;2023-06-10T05:51:07;100125.63;;;28.34;43.43
27805;BME280;15183;51.350;11.102;2023-06-10T05:53:33;100139.47;;;28.53;43.24
27805;BME280;15183;51.350;11.102;2023-06-10T05:56:00;100135.63;;;28.67;43.16
27805;BME280;15183;51.350;11.102;2023-06-10T05:58:26;100151.00;;;28.84;42.60
27805;BME280;15183;51.350;11.102;2023-06-10T06:00:53;100139.16;;;28.92;42.84
27805;BME280;15183;51.350;11.102;2023-06-10T06:03:19;100143.56;;;28.97;41.90
27805;BME280;15183;51.350;11.102;2023-06-10T06:05:46;100139.63;;;28.94;42.60
27805;BME280;15183;51.350;11.102;2023-06-10T06:08:12;100139.03;;;29.01;41.91
27805;BME280;15183;51.350;11.102;2023-06-10T06:10:39;100136.53;;;28.96;42.04
27805;BME280;15183;51.350;11.102;2023-06-10T06:13:06;100137.78;;;28.98;42.54
27805;BME280;15183;51.350;11.102;2023-06-10T06:15:32;100151.16;;;29.16;42.33
27805;BME280;15183;51.350;11.102;2023-06-10T06:17:59;100153.88;;;29.28;41.81
27805;BME280;15183;51.350;11.102;2023-06-10T06:20:25;100152.72;;;29.42;42.20
27805;BME280;15183;51.350;11.102;2023-06-10T06:22:52;100143.59;;;29.50;41.48
27805;BME280;15183;51.350;11.102;2023-06-10T06:25:18;100144.69;;;29.62;41.80
27805;BME280;15183;51.350;11.102;2023-06-10T06:27:45;100144.22;;;29.88;42.17
27805;BME280;15183;51.350;11.102;2023-06-10T06:30:11;100142.16;;;30.13;42.50
27805;BME280;15183;51.350;11.102;2023-06-10T06:32:38;100141.38;;;30.45;42.12
27805;BME280;15183;51.350;11.102;2023-06-10T06:35:05;100141.31;;;30.73;41.40
27805;BME280;15183;51.350;11.102;2023-06-10T06:37:35;100136.16;;;30.88;40.49
27805;BME280;15183;51.350;11.102;2023-06-10T06:40:02;100139.19;;;31.02;40.49
27805;BME280;15183;51.350;11.102;2023-06-10T06:42:29;100144.75;;;31.06;40.03
27805;BME280;15183;51.350;11.102;2023-06-10T06:44:56;100141.91;;;31.02;39.78
27805;BME280;15183;51.350;11.102;2023-06-10T06:47:22;100142.50;;;30.92;39.29
27805;BME280;15183;51.350;11.102;2023-06-10T06:49:49;100154.25;;;30.93;39.70
27805;BME280;15183;51.350;11.102;2023-06-10T06:52:15;100136.16;;;30.88;39.39
27805;BME280;15183;51.350;11.102;2023-06-10T06:54:42;100138.59;;;30.93;39.42
27805;BME280;15183;51.350;11.102;2023-06-10T06:57:08;100148.97;;;31.03;39.48
27805;BME280;15183;51.350;11.102;2023-06-10T06:59:35;100151.47;;;31.09;38.86
27805;BME280;15183;51.350;11.102;2023-06-10T07:02:03;100124.41;;;30.87;39.40
27805;BME280;15183;51.350;11.102;2023-06-10T07:04:29;100161.75;;;31.15;38.83
27805;BME280;15183;51.350;11.102;2023-06-10T07:06:56;100156.41;;;31.19;39.25
27805;BME280;15183;51.350;11.102;2023-06-10T07:09:22;100155.38;;;31.27;38.81
27805;BME280;15183;51.350;11.102;2023-06-10T07:11:49;100140.97;;;31.30;39.06
27805;BME280;15183;51.350;11.102;2023-06-10T07:14:15;100152.22;;;31.25;38.32
27805;BME280;15183;51.350;11.102;2023-06-10T07:16:42;100146.31;;;31.23;38.20
27805;BME280;15183;51.350;11.102;2023-06-10T07:19:08;100158.22;;;31.31;38.50
27805;BME280;15183;51.350;11.102;2023-06-10T07:21:34;100160.94;;;31.31;38.74
27805;BME280;15183;51.350;11.102;2023-06-10T07:24:02;100147.56;;;31.26;38.37
27805;BME280;15183;51.350;11.102;2023-06-10T07:26:28;100154.22;;;31.28;38.47
27805;BME280;15183;51.350;11.102;2023-06-10T07:28:55;100154.88;;;31.41;38.61
27805;BME280;15183;51.350;11.102;2023-06-10T07:31:22;100148.19;;;31.58;38.96
27805;BME280;15183;51.350;11.102;2023-06-10T07:33:49;100153.66;;;31.78;39.31
27805;BME280;15183;51.350;11.102;2023-06-10T07:36:15;100147.78;;;31.99;38.76
27805;BME280;15183;51.350;11.102;2023-06-10T07:38:42;100151.97;;;32.16;38.33
27805;BME280;15183;51.350;11.102;2023-06-10T07:41:09;100159.19;;;32.25;38.66
27805;BME280;15183;51.350;11.102;2023-06-10T07:43:37;100158.78;;;32.23;38.42
27805;BME280;15183;51.350;11.102;2023-06-10T07:46:04;100152.41;;;32.18;37.69
27805;BME280;15183;51.350;11.102;2023-06-10T07:48:31;100152.72;;;32.13;37.71
27805;BME280;15183;51.350;11.102;2023-06-10T07:50:58;100147.19;;;32.10;37.64
27805;BME280;15183;51.350;11.102;2023-06-10T07:53:24;100146.56;;;32.20;37.69
27805;BME280;15183;51.350;11.102;2023-06-10T07:55:51;100150.97;;;32.25;38.12
27805;BME280;15183;51.350;11.102;2023-06-10T07:58:17;100154.63;;;32.32;37.89
27805;BME280;15183;51.350;11.102;2023-06-10T08:00:43;100154.19;;;32.30;37.38
27805;BME280;15183;51.350;11.102;2023-06-10T08:03:10;100159.38;;;32.36;37.88
27805;BME280;15183;51.350;11.102;2023-06-10T08:05:36;100153.84;;;32.32;38.10
27805;BME280;15183;51.350;11.102;2023-06-10T08:08:03;100142.56;;;32.37;37.91
27805;BME280;15183;51.350;11.102;2023-06-10T08:10:31;100145.75;;;32.39;37.84
27805;BME280;15183;51.350;11.102;2023-06-10T08:12:58;100140.78;;;32.48;37.68
27805;BME280;15183;51.350;11.102;2023-06-10T08:15:25;100138.47;;;32.51;37.49
27805;BME280;15183;51.350;11.102;2023-06-10T08:17:51;100138.63;;;32.61;37.13
27805;BME280;15183;51.350;11.102;2023-06-10T08:20:18;100147.69;;;32.66;37.54
27805;BME280;15183;51.350;11.102;2023-06-10T08:22:44;100145.66;;;32.59;37.27
27805;BME280;15183;51.350;11.102;2023-06-10T08:25:11;100147.69;;;32.66;36.89
27805;BME280;15183;51.350;11.102;2023-06-10T08:27:37;100146.84;;;32.61;37.18
27805;BME280;15183;51.350;11.102;2023-06-10T08:30:04;100154.56;;;32.52;37.15
27805;BME280;15183;51.350;11.102;2023-06-10T08:32:31;100146.06;;;32.34;36.66
27805;BME280;15183;51.350;11.102;2023-06-10T08:34:57;100156.06;;;32.26;37.22
27805;BME280;15183;51.350;11.102;2023-06-10T08:37:24;100160.22;;;32.16;36.52
27805;BME280;15183;51.350;11.102;2023-06-10T08:39:50;100153.34;;;32.03;37.42
27805;BME280;15183;51.350;11.102;2023-06-10T08:42:39;100154.84;;;32.00;37.53
27805;BME280;15183;51.350;11.102;2023-06-10T08:45:07;100153.34;;;32.03;37.82
27805;BME280;15183;51.350;11.102;2023-06-10T08:47:39;100144.81;;;32.08;37.57
27805;BME280;15183;51.350;11.102;2023-06-10T08:50:08;100146.50;;;32.16;37.43
27805;BME280;15183;51.350;11.102;2023-06-10T08:52:37;100139.81;;;32.14;37.13
27805;BME280;15183;51.350;11.102;2023-06-10T08:55:16;100131.16;;;32.12;37.11
27805;BME280;15183;51.350;11.102;2023-06-10T08:57:46;100134.38;;;32.17;37.23
27805;BME280;15183;51.350;11.102;2023-06-10T09:00:15;100145.09;;;32.26;36.84
27805;BME280;15183;51.350;11.102;2023-06-10T09:02:43;100138.41;;;32.24;36.56
27805;BME280;15183;51.350;11.102;2023-06-10T09:05:10;100143.66;;;32.09;36.20
27805;BME280;15183;51.350;11.102;2023-06-10T09:07:38;100143.09;;;32.00;36.60
27805;BME280;15183;51.350;11.102;2023-06-10T09:10:05;100139.50;;;31.96;37.40
27805;BME280;15183;51.350;11.102;2023-06-10T09:12:36;100143.09;;;32.00;36.55
27805;BME280;15183;51.350;11.102;2023-06-10T09:15:05;100150.25;;;32.04;37.39
27805;BME280;15183;51.350;11.102;2023-06-10T09:17:32;100136.81;;;31.99;36.61
27805;BME280;15183;51.350;11.102;2023-06-10T09:20:00;100140.72;;;31.98;36.29
27805;BME280;15183;51.350;11.102;2023-06-10T09:22:28;100141.09;;;31.97;37.39
27805;BME280;15183;51.350;11.102;2023-06-10T09:25:06;100145.50;;;32.01;36.90
27805;BME280;15183;51.350;11.102;2023-06-10T09:27:52;100148.94;;;31.98;36.76
27805;BME280;15183;51.350;11.102;2023-06-10T09:30:33;100127.69;;;31.92;37.18
27805;BME280;15183;51.350;11.102;2023-06-10T09:33:09;100141.41;;;32.15;37.47
27805;BME280;15183;51.350;11.102;2023-06-10T09:35:36;100137.25;;;32.25;37.04
27805;BME280;15183;51.350;11.102;2023-06-10T09:38:02;100131.03;;;32.28;36.83
27805;BME280;15183;51.350;11.102;2023-06-10T09:40:29;100123.56;;;32.25;36.97
27805;BME280;15183;51.350;11.102;2023-06-10T09:42:58;100140.56;;;32.34;36.71
27805;BME280;15183;51.350;11.102;2023-06-10T09:45:30;100133.78;;;32.28;36.52
27805;BME280;15183;51.350;11.102;2023-06-10T09:48:00;100123.91;;;32.23;36.71
27805;BME280;15183;51.350;11.102;2023-06-10T09:50:27;100138.31;;;32.40;36.55
27805;BME280;15183;51.350;11.102;2023-06-10T09:52:53;100129.03;;;32.48;36.42
27805;BME280;15183;51.350;11.102;2023-06-10T09:55:20;100129.13;;;32.55;35.74
27805;BME280;15183;51.350;11.102;2023-06-10T09:57:49;100121.31;;;32.57;35.63
27805;BME280;15183;51.350;11.102;2023-06-10T10:00:19;100120.59;;;32.60;35.54
27805;BME280;15183;51.350;11.102;2023-06-10T10:02:51;100118.25;;;32.62;35.26
27805;BME280;15183;51.350;11.102;2023-06-10T10:05:20;100135.22;;;32.68;35.55
27805;BME280;15183;51.350;11.102;2023-06-10T10:07:48;100122.31;;;32.72;35.53
27805;BME280;15183;51.350;11.102;2023-06-10T10:10:17;100123.69;;;32.86;35.41
27805;BME280;15183;51.350;11.102;2023-06-10T10:12:47;100102.53;;;32.86;35.88
27805;BME280;15183;51.350;11.102;2023-06-10T10:15:17;100127.44;;;33.01;35.20
27805;BME280;15183;51.350;11.102;2023-06-10T10:18:08;100119.53;;;32.96;35.22
27805;BME280;15183;51.350;11.102;2023-06-10T10:20:45;100113.28;;;32.99;35.09
27805;BME280;15183;51.350;11.102;2023-06-10T10:23:15;100129.50;;;33.08;34.92
27805;BME280;15183;51.350;11.102;2023-06-10T10:25:51;100124.50;;;33.17;34.93
27805;BME280;15183;51.350;11.102;2023-06-10T10:28:21;100113.84;;;33.12;34.73
27805;BME280;15183;51.350;11.102;2023-06-10T10:30:54;100114.00;;;33.23;35.31
27805;BME280;15183;51.350;11.102;2023-06-10T10:33:36;100113.25;;;33.29;34.58
27805;BME280;15183;51.350;11.102;2023-06-10T10:36:04;100107.47;;;33.34;34.55
27805;BME280;15183;51.350;11.102;2023-06-10T10:38:31;100119.28;;;33.39;34.47
27805;BME280;15183;51.350;11.102;2023-06-10T10:40:58;100109.34;;;33.30;33.52
27805;BME280;15183;51.350;11.102;2023-06-10T10:43:28;100102.88;;;33.12;34.42
27805;BME280;15183;51.350;11.102;2023-06-10T10:46:02;100108.44;;;33.19;34.01
27805;BME280;15183;51.350;11.102;2023-06-10T10:48:39;100095.00;;;33.10;34.36
27805;BME280;15183;51.350;11.102;2023-06-10T10:51:08;100097.25;;;33.01;33.42
27805;BME280;15183;51.350;11.102;2023-06-10T10:53:34;100112.53;;;32.98;33.48
27805;BME280;15183;51.350;11.102;2023-06-10T10:56:14;100113.97;;;32.92;33.58
27805;BME280;15183;51.350;11.102;2023-06-10T10:58:41;100113.41;;;32.79;34.27
27805;BME280;15183;51.350;11.102;2023-06-10T11:01:14;100114.59;;;32.82;34.43
27805;BME280;15183;51.350;11.102;2023-06-10T11:03:45;100097.09;;;32.90;34.12
27805;BME280;15183;51.350;11.102;2023-06-10T11:06:14;100099.97;;;32.97;34.57
27805;BME280;15183;51.350;11.102;2023-06-10T11:11:27;100091.56;;;33.17;34.45
27805;BME280;15183;51.350;11.102;2023-06-10T11:16:28;100101.59;;;33.36;33.72
27805;BME280;15183;51.350;11.102;2023-06-10T11:18:56;100097.19;;;33.31;33.56
27805;BME280;15183;51.350;11.102;2023-06-10T11:21:26;100093.28;;;33.32;34.33
27805;BME280;15183;51.350;11.102;2023-06-10T11:23:52;100094.09;;;33.33;33.93
27805;BME280;15183;51.350;11.102;2023-06-10T11:31:21;100096.03;;;33.67;33.20
27805;BME280;15183;51.350;11.102;2023-06-10T11:34:00;100086.56;;;33.60;33.15
27805;BME280;15183;51.350;11.102;2023-06-10T11:36:27;100086.91;;;33.55;32.97
27805;BME280;15183;51.350;11.102;2023-06-10T11:38:59;100083.75;;;33.53;33.25
27805;BME280;15183;51.350;11.102;2023-06-10T11:41:27;100088.06;;;33.54;33.18
27805;BME280;15183;51.350;11.102;2023-06-10T11:43:54;100086.50;;;33.53;32.95
27805;BME280;15183;51.350;11.102;2023-06-10T11:46:24;100079.13;;;33.65;32.77
27805;BME280;15183;51.350;11.102;2023-06-10T11:48:56;100079.25;;;33.75;32.86
27805;BME280;15183;51.350;11.102;2023-06-10T11:51:28;100080.44;;;33.78;32.81
27805;BME280;15183;51.350;11.102;2023-06-10T11:53:55;100094.94;;;33.75;32.31
27805;BME280;15183;51.350;11.102;2023-06-10T11:56:27;100079.47;;;33.59;32.14
27805;BME280;15183;51.350;11.102;2023-06-10T11:59:01;100080.94;;;33.46;32.24
27805;BME280;15183;51.350;11.102;2023-06-10T12:01:33;100086.56;;;33.26;32.69
27805;BME280;15183;51.350;11.102;2023-06-10T12:06:54;100068.25;;;33.03;33.23
27805;BME280;15183;51.350;11.102;2023-06-10T12:09:21;100079.00;;;33.16;33.19
27805;BME280;15183;51.350;11.102;2023-06-10T12:12:02;100071.97;;;33.18;32.99
27805;BME280;15183;51.350;11.102;2023-06-10T12:14:54;100076.72;;;33.22;33.07
27805;BME280;15183;51.350;11.102;2023-06-10T12:17:44;100067.25;;;33.19;33.22
27805;BME280;15183;51.350;11.102;2023-06-10T12:20:32;100070.75;;;33.16;32.41
27805;BME280;15183;51.350;11.102;2023-06-10T12:23:09;100049.94;;;33.15;33.01
27805;BME280;15183;51.350;11.102;2023-06-10T12:25:36;100056.72;;;33.25;32.31
27805;BME280;15183;51.350;11.102;2023-06-10T12:28:05;100074.78;;;33.26;31.62
27805;BME280;15183;51.350;11.102;2023-06-10T12:30:36;100062.47;;;33.12;31.08
27805;BME280;15183;51.350;11.102;2023-06-10T12:33:03;100054.94;;;33.05;31.86
27805;BME280;15183;51.350;11.102;2023-06-10T12:35:29;100040.38;;;33.01;32.04
27805;BME280;15183;51.350;11.102;2023-06-10T12:38:05;100050.28;;;33.10;31.95
27805;BME280;15183;51.350;11.102;2023-06-10T12:40:41;100049.59;;;33.20;31.87
27805;BME280;15183;51.350;11.102;2023-06-10T12:43:08;100048.50;;;33.28;32.39
27805;BME280;15183;51.350;11.102;2023-06-10T12:45:36;100047.44;;;33.37;30.91
27805;BME280;15183;51.350;11.102;2023-06-10T12:48:07;100052.84;;;33.29;30.67
27805;BME280;15183;51.350;11.102;2023-06-10T12:50:37;100039.78;;;33.15;30.65
27805;BME280;15183;51.350;11.102;2023-06-10T12:53:04;100041.00;;;33.22;31.24
27805;BME280;15183;51.350;11.102;2023-06-10T12:55:31;100027.22;;;33.18;31.41
27805;BME280;15183;51.350;11.102;2023-06-10T12:57:59;100023.72;;;33.21;31.38
27805;BME280;15183;51.350;11.102;2023-06-10T13:00:26;100045.34;;;33.26;31.45
27805;BME280;15183;51.350;11.102;2023-06-10T13:03:02;100037.03;;;33.19;31.16